Time;durP1;ratioP1;P1;durP2;ratioP2;P2;SDS_P1;SDS_P2;PMS_P1;PMS_P2;Temp;Humidity;BMP_temperature;BMP_pressure;BME280_temperature;BME280_humidity;BME280_pressure;Samples;Min_cycle;Max_cycle;Signal;HPM_P1;HPM_P2
2023/08/15 00:01:43;;;;;;;10.27;8.50;;;;;;;;;;4998736;28;20397;-86
2023/08/15 00:04:09;;;;;;;9.17;8.10;;;;;;;;;;4992905;28;20447;-86
2023/08/15 00:06:36;;;;;;;16.73;8.80;;;;;;;;;;4999254;28;20451;-87
2023/08/15 00:09:02;;;;;;;10.83;9.17;;;;;;;;;;4990205;28;21030;-87
2023/08/15 00:11:28;;;;;;;9.50;7.83;;;;;;;;;;5026050;28;20520;-86
2023/08/15 00:13:56;;;;;;;10.27;8.63;;;;;;;;;;5003264;28;20470;-87
2023/08/15 00:16:22;;;;;;;9.17;8.27;;;;;;;;;;5010883;28;20475;-87
2023/08/15 00:18:48;;;;;;;9.93;8.20;;;;;;;;;;5050062;28;20518;-86
2023/08/15 00:21:14;;;;;;;10.37;7.97;;;;;;;;;;5042942;28;20521;-86
2023/08/15 00:23:40;;;;;;;8.93;7.77;;;;;;;;;;5052955;28;20637;-86
2023/08/15 00:26:06;;;;;;;8.70;7.67;;;;;;;;;;5032069;28;20476;-86
2023/08/15 00:28:32;;;;;;;7.63;6.93;;;;;;;;;;5041240;28;20525;-86
2023/08/15 00:30:58;;;;;;;8.60;7.80;;;;;;;;;;5063402;28;20406;-86
2023/08/15 00:33:24;;;;;;;11.00;8.17;;;;;;;;;;5038897;28;20406;-87
2023/08/15 00:35:50;;;;;;;11.03;8.20;;;;;;;;;;5048594;28;20439;-87
2023/08/15 00:38:16;;;;;;;9.70;8.00;;;;;;;;;;5028724;28;20430;-86
2023/08/15 00:40:42;;;;;;;9.27;8.37;;;;;;;;;;5038687;28;20955;-87
2023/08/15 00:43:11;;;;;;;11.57;8.10;;;;;;;;;;5031698;28;20410;-86
2023/08/15 00:45:38;;;;;;;11.50;7.77;;;;;;;;;;5048776;28;20395;-86
2023/08/15 00:48:05;;;;;;;13.43;8.90;;;;;;;;;;5056197;28;20425;-87
2023/08/15 00:50:32;;;;;;;11.57;7.80;;;;;;;;;;5036890;28;20463;-86
2023/08/15 00:52:58;;;;;;;12.70;7.53;;;;;;;;;;5055785;28;20447;-86
2023/08/15 00:55:24;;;;;;;9.10;8.23;;;;;;;;;;5035712;28;20537;-86
2023/08/15 00:57:50;;;;;;;10.30;8.10;;;;;;;;;;5035533;28;20469;-86
2023/08/15 01:00:23;;;;;;;8.33;7.53;;;;;;;;;;5027514;28;20410;-88
2023/08/15 01:02:49;;;;;;;10.70;8.10;;;;;;;;;;5050181;28;20439;-86
2023/08/15 01:05:16;;;;;;;9.40;8.40;;;;;;;;;;5012417;28;20920;-86
2023/08/15 01:07:42;;;;;;;11.37;9.40;;;;;;;;;;5023305;28;20446;-86
2023/08/15 01:10:08;;;;;;;9.53;8.10;;;;;;;;;;5012865;28;20458;-86
2023/08/15 01:12:44;;;;;;;9.10;7.23;;;;;;;;;;5035091;28;20525;-87
2023/08/15 01:15:12;;;;;;;9.77;7.57;;;;;;;;;;5040406;28;20434;-86
2023/08/15 01:17:41;;;;;;;10.90;7.60;;;;;;;;;;5020000;28;20436;-86
2023/08/15 01:20:09;;;;;;;10.00;8.90;;;;;;;;;;5059866;28;20422;-86
2023/08/15 01:22:35;;;;;;;8.97;7.67;;;;;;;;;;5037516;28;20453;-86
2023/08/15 01:25:01;;;;;;;9.83;8.83;;;;;;;;;;5023466;28;20891;-87
2023/08/15 01:27:27;;;;;;;9.33;8.13;;;;;;;;;;5046826;28;20925;-86
2023/08/15 01:29:56;;;;;;;14.93;8.20;;;;;;;;;;5043261;28;20980;-86
2023/08/15 01:32:22;;;;;;;13.70;8.20;;;;;;;;;;5042252;28;20830;-85
2023/08/15 01:34:51;;;;;;;8.90;7.80;;;;;;;;;;5061220;28;20473;-85
2023/08/15 01:37:19;;;;;;;8.90;8.13;;;;;;;;;;5059009;28;20433;-84
2023/08/15 01:39:45;;;;;;;9.50;7.27;;;;;;;;;;5058017;28;20424;-84
2023/08/15 01:42:11;;;;;;;10.23;9.13;;;;;;;;;;5040969;28;20409;-86
2023/08/15 01:44:37;;;;;;;9.90;8.00;;;;;;;;;;5039913;28;20426;-87
2023/08/15 01:47:03;;;;;;;9.10;8.23;;;;;;;;;;5052311;28;20406;-86
2023/08/15 01:49:29;;;;;;;9.40;8.47;;;;;;;;;;5038038;28;20448;-87
2023/08/15 01:51:57;;;;;;;10.17;8.27;;;;;;;;;;5043239;28;20437;-88
2023/08/15 01:54:23;;;;;;;10.73;7.83;;;;;;;;;;5038866;28;20441;-85
2023/08/15 01:56:48;;;;;;;8.47;7.60;;;;;;;;;;5045363;28;20858;-86
2023/08/15 01:59:14;;;;;;;9.60;7.73;;;;;;;;;;5043707;28;20442;-88
2023/08/15 02:01:40;;;;;;;8.80;7.87;;;;;;;;;;5049892;28;21161;-85
2023/08/15 02:04:06;;;;;;;10.20;9.30;;;;;;;;;;5058472;28;20484;-83
2023/08/15 02:06:32;;;;;;;9.80;8.87;;;;;;;;;;5053017;28;20528;-86
2023/08/15 02:08:59;;;;;;;8.53;7.70;;;;;;;;;;5039265;28;20449;-85
2023/08/15 02:11:25;;;;;;;8.53;7.73;;;;;;;;;;5044122;28;20500;-85
2023/08/15 02:13:51;;;;;;;9.77;8.83;;;;;;;;;;5038017;28;20494;-85
2023/08/15 02:16:23;;;;;;;8.77;7.93;;;;;;;;;;5235127;22;20468;-85
2023/08/15 02:18:49;;;;;;;9.50;8.50;;;;;;;;;;5664937;22;20978;-87
2023/08/15 02:21:15;;;;;;;10.23;8.00;;;;;;;;;;5046518;28;20435;-86
2023/08/15 02:23:41;;;;;;;9.00;8.10;;;;;;;;;;5044588;28;20910;-85
2023/08/15 02:26:07;;;;;;;13.03;8.03;;;;;;;;;;5046374;28;20527;-86
2023/08/15 02:28:33;;;;;;;7.70;6.90;;;;;;;;;;5047745;28;20417;-85
2023/08/15 02:30:59;;;;;;;9.10;7.17;;;;;;;;;;5056767;28;20456;-87
2023/08/15 02:33:25;;;;;;;8.80;7.90;;;;;;;;;;5047767;28;20437;-86
2023/08/15 02:35:54;;;;;;;8.70;7.73;;;;;;;;;;5048088;28;20486;-87
2023/08/15 02:38:20;;;;;;;8.10;7.40;;;;;;;;;;5049823;28;20482;-87
2023/08/15 02:40:46;;;;;;;8.63;7.73;;;;;;;;;;5078903;28;20417;-88
2023/08/15 02:43:12;;;;;;;14.30;7.70;;;;;;;;;;5065877;28;20949;-86
2023/08/15 02:45:38;;;;;;;9.80;7.03;;;;;;;;;;5041198;28;20461;-86
2023/08/15 02:48:05;;;;;;;8.53;7.73;;;;;;;;;;5058535;28;20842;-86
2023/08/15 02:50:30;;;;;;;12.13;7.47;;;;;;;;;;5054955;28;20505;-86
2023/08/15 02:52:56;;;;;;;7.97;7.17;;;;;;;;;;5058120;28;20435;-87
2023/08/15 02:55:22;;;;;;;10.50;7.97;;;;;;;;;;5046648;28;20458;-87
2023/08/15 02:57:49;;;;;;;8.93;8.13;;;;;;;;;;5079888;28;20413;-87
2023/08/15 03:00:15;;;;;;;8.00;7.30;;;;;;;;;;5041430;28;20541;-87
2023/08/15 03:02:41;;;;;;;8.50;7.17;;;;;;;;;;5042084;28;20458;-85
2023/08/15 03:05:07;;;;;;;8.90;8.10;;;;;;;;;;5041632;28;20517;-84
2023/08/15 03:15:18;;;;;;;10.43;8.00;;;;;;;;;;5079348;28;20488;-86
2023/08/15 03:17:44;;;;;;;8.50;7.77;;;;;;;;;;5069713;28;20435;-87
2023/08/15 03:20:11;;;;;;;9.13;7.57;;;;;;;;;;5062643;28;20445;-86
2023/08/15 03:22:37;;;;;;;9.07;8.17;;;;;;;;;;5067273;28;20423;-86
2023/08/15 03:25:03;;;;;;;9.27;7.60;;;;;;;;;;5044330;28;20445;-87
2023/08/15 03:27:29;;;;;;;8.17;7.47;;;;;;;;;;5047228;28;20406;-86
2023/08/15 03:29:55;;;;;;;9.00;8.10;;;;;;;;;;5045235;28;20456;-87
2023/08/15 03:32:21;;;;;;;9.73;8.83;;;;;;;;;;5048848;28;20405;-87
2023/08/15 03:34:47;;;;;;;9.93;7.57;;;;;;;;;;5067154;28;20875;-86
2023/08/15 03:37:19;;;;;;;8.77;7.47;;;;;;;;;;5059485;28;20401;-86
2023/08/15 03:39:45;;;;;;;9.40;7.77;;;;;;;;;;5052832;28;20405;-85
2023/08/15 03:42:11;;;;;;;8.20;7.50;;;;;;;;;;5065848;28;20400;-86
2023/08/15 03:44:37;;;;;;;8.87;7.97;;;;;;;;;;5066381;28;20429;-86
2023/08/15 03:47:03;;;;;;;8.40;7.70;;;;;;;;;;5074834;28;20452;-87
2023/08/15 03:49:31;;;;;;;9.40;8.13;;;;;;;;;;5073596;28;20837;-87
2023/08/15 03:51:57;;;;;;;10.73;8.50;;;;;;;;;;5059510;28;20995;-86
2023/08/15 03:54:23;;;;;;;9.47;8.60;;;;;;;;;;5066859;28;20463;-87
2023/08/15 03:56:51;;;;;;;9.87;8.97;;;;;;;;;;5074694;28;20421;-86
2023/08/15 03:59:18;;;;;;;13.60;10.00;;;;;;;;;;5049407;28;20432;-86
2023/08/15 04:01:43;;;;;;;9.33;8.43;;;;;;;;;;5060133;28;20403;-86
2023/08/15 04:04:10;;;;;;;10.87;9.73;;;;;;;;;;5055632;28;20517;-86
2023/08/15 04:06:36;;;;;;;10.83;9.87;;;;;;;;;;5049743;28;20438;-88
2023/08/15 04:09:06;;;;;;;10.73;9.20;;;;;;;;;;5040638;28;20463;-86
2023/08/15 04:11:33;;;;;;;10.10;9.00;;;;;;;;;;5003968;28;20950;-87
2023/08/15 04:13:59;;;;;;;11.30;8.87;;;;;;;;;;5027863;28;20454;-87
2023/08/15 04:16:25;;;;;;;9.77;8.73;;;;;;;;;;5047229;28;20407;-88
2023/08/15 04:18:51;;;;;;;9.30;8.27;;;;;;;;;;5015806;28;20428;-86
2023/08/15 04:21:17;;;;;;;9.00;8.20;;;;;;;;;;5005386;28;20604;-86
2023/08/15 04:23:43;;;;;;;8.97;8.07;;;;;;;;;;5031622;28;20418;-87
2023/08/15 04:26:09;;;;;;;10.57;8.17;;;;;;;;;;5018400;28;20505;-86
2023/08/15 04:28:35;;;;;;;9.90;8.77;;;;;;;;;;5022196;28;20419;-86
2023/08/15 04:31:01;;;;;;;9.57;8.60;;;;;;;;;;5004057;28;20517;-85
2023/08/15 04:33:27;;;;;;;11.83;7.50;;;;;;;;;;5006528;28;20531;-87
2023/08/15 04:35:52;;;;;;;9.90;8.90;;;;;;;;;;5009782;28;20977;-87
2023/08/15 04:38:18;;;;;;;11.00;9.83;;;;;;;;;;5025651;28;20427;-86
2023/08/15 04:40:44;;;;;;;11.23;9.27;;;;;;;;;;5049249;28;20439;-87
2023/08/15 04:43:11;;;;;;;10.40;9.40;;;;;;;;;;5065142;28;20436;-86
2023/08/15 04:45:40;;;;;;;10.53;9.53;;;;;;;;;;5051710;28;20425;-88
2023/08/15 04:48:07;;;;;;;10.67;9.53;;;;;;;;;;5062392;28;20425;-86
2023/08/15 04:50:33;;;;;;;10.60;9.33;;;;;;;;;;5042736;28;20469;-87
2023/08/15 04:53:02;;;;;;;10.37;8.73;;;;;;;;;;5063030;28;20517;-87
2023/08/15 04:55:28;;;;;;;8.97;8.13;;;;;;;;;;5048676;28;20426;-87
2023/08/15 04:57:54;;;;;;;11.07;9.30;;;;;;;;;;5064981;28;20453;-87
2023/08/15 05:00:20;;;;;;;9.07;8.17;;;;;;;;;;5051841;28;20437;-86
2023/08/15 05:02:47;;;;;;;11.50;8.97;;;;;;;;;;5050908;28;20434;-87
2023/08/15 05:05:13;;;;;;;10.70;9.67;;;;;;;;;;5065988;28;20446;-87
2023/08/15 05:07:39;;;;;;;11.23;10.13;;;;;;;;;;5052929;28;20436;-86
2023/08/15 05:10:05;;;;;;;10.90;9.67;;;;;;;;;;5047286;28;20876;-86
2023/08/15 05:12:31;;;;;;;14.13;9.30;;;;;;;;;;5048783;28;20410;-86
2023/08/15 05:14:57;;;;;;;10.60;9.50;;;;;;;;;;5044380;28;20856;-86
2023/08/15 05:17:23;;;;;;;10.03;8.57;;;;;;;;;;5062465;28;20462;-86
2023/08/15 05:19:49;;;;;;;11.90;10.80;;;;;;;;;;5042362;28;20948;-86
2023/08/15 05:22:15;;;;;;;9.70;8.67;;;;;;;;;;5044402;28;20425;-86
2023/08/15 05:24:41;;;;;;;9.57;8.63;;;;;;;;;;5046161;28;20495;-86
2023/08/15 05:27:07;;;;;;;11.83;9.70;;;;;;;;;;5057071;28;20429;-88
2023/08/15 05:29:33;;;;;;;10.20;9.30;;;;;;;;;;5038521;28;20479;-87
2023/08/15 05:31:59;;;;;;;9.70;8.70;;;;;;;;;;5049683;28;20429;-87
2023/08/15 05:34:25;;;;;;;11.07;9.70;;;;;;;;;;5055496;28;20426;-88
2023/08/15 05:36:51;;;;;;;10.07;9.17;;;;;;;;;;5079761;28;20417;-87
2023/08/15 05:39:17;;;;;;;11.27;9.37;;;;;;;;;;5041258;28;20433;-89
2023/08/15 05:41:43;;;;;;;9.70;8.70;;;;;;;;;;5054685;28;20930;-87
2023/08/15 05:44:09;;;;;;;10.00;9.00;;;;;;;;;;5043276;28;20780;-87
2023/08/15 05:46:35;;;;;;;9.20;8.27;;;;;;;;;;5040090;28;20438;-86
2023/08/15 05:49:01;;;;;;;12.20;8.30;;;;;;;;;;5044327;28;20820;-86
2023/08/15 05:51:37;;;;;;;10.17;9.27;;;;;;;;;;5035891;28;20399;-87
2023/08/15 05:54:03;;;;;;;8.73;7.93;;;;;;;;;;5075910;28;20908;-87
2023/08/15 05:56:29;;;;;;;10.20;9.20;;;;;;;;;;5043401;28;21075;-87
2023/08/15 05:58:55;;;;;;;9.97;8.97;;;;;;;;;;5034610;28;20426;-86
2023/08/15 06:01:22;;;;;;;10.50;8.27;;;;;;;;;;5035644;28;20721;-87
2023/08/15 06:03:48;;;;;;;9.57;8.63;;;;;;;;;;5059049;28;20455;-87
2023/08/15 06:06:14;;;;;;;9.90;8.90;;;;;;;;;;5049584;28;20485;-86
2023/08/15 06:08:40;;;;;;;11.30;8.50;;;;;;;;;;5036483;28;20447;-87
2023/08/15 06:11:08;;;;;;;10.60;9.13;;;;;;;;;;5036102;28;20433;-88
2023/08/15 06:13:34;;;;;;;10.77;8.97;;;;;;;;;;5062850;28;20409;-87
2023/08/15 06:16:01;;;;;;;8.90;8.10;;;;;;;;;;5043115;28;20434;-87
2023/08/15 06:18:26;;;;;;;12.23;8.90;;;;;;;;;;5079865;28;20428;-87
2023/08/15 06:20:52;;;;;;;9.13;8.33;;;;;;;;;;5039990;28;20468;-86
2023/08/15 06:23:19;;;;;;;16.80;8.83;;;;;;;;;;5048554;28;20425;-86
2023/08/15 06:25:45;;;;;;;8.80;8.00;;;;;;;;;;5043546;28;20422;-88
2023/08/15 06:28:11;;;;;;;8.70;7.97;;;;;;;;;;5076498;28;20405;-89
2023/08/15 06:30:42;;;;;;;8.87;7.97;;;;;;;;;;5054420;28;20468;-89
2023/08/15 06:33:08;;;;;;;10.27;9.00;;;;;;;;;;5055982;28;20437;-87
2023/08/15 06:35:35;;;;;;;10.47;8.07;;;;;;;;;;5035294;28;20578;-87
2023/08/15 06:38:01;;;;;;;9.50;8.57;;;;;;;;;;5040862;28;20975;-86
2023/08/15 06:40:28;;;;;;;9.57;8.73;;;;;;;;;;5036470;28;20418;-87
2023/08/15 06:42:57;;;;;;;10.60;7.83;;;;;;;;;;5054876;28;20418;-89
2023/08/15 06:45:23;;;;;;;9.53;8.63;;;;;;;;;;5055377;28;20468;-91
2023/08/15 06:47:50;;;;;;;15.77;8.80;;;;;;;;;;5056348;28;20430;-89
2023/08/15 06:50:16;;;;;;;11.00;8.40;;;;;;;;;;5013276;28;20463;-90
2023/08/15 06:52:42;;;;;;;8.70;7.90;;;;;;;;;;5022166;28;20471;-88
2023/08/15 06:55:08;;;;;;;8.90;8.10;;;;;;;;;;5018593;28;20544;-88
2023/08/15 06:57:34;;;;;;;8.57;7.70;;;;;;;;;;4993626;28;20504;-86
2023/08/15 07:00:01;;;;;;;8.73;7.70;;;;;;;;;;4988286;28;20476;-88
2023/08/15 07:02:27;;;;;;;9.67;7.53;;;;;;;;;;5000828;28;20428;-88
2023/08/15 07:04:53;;;;;;;9.00;7.70;;;;;;;;;;4982102;28;20478;-88
2023/08/15 07:07:21;;;;;;;9.97;8.27;;;;;;;;;;4982102;28;20425;-86
2023/08/15 07:09:47;;;;;;;10.93;8.13;;;;;;;;;;4977918;28;20551;-89
2023/08/15 07:12:17;;;;;;;19.13;8.80;;;;;;;;;;4980802;28;20507;-88
2023/08/15 07:14:43;;;;;;;9.37;7.10;;;;;;;;;;4982367;28;20569;-88
2023/08/15 07:17:09;;;;;;;10.17;8.97;;;;;;;;;;4973555;28;20817;-88
2023/08/15 07:19:35;;;;;;;8.50;7.70;;;;;;;;;;4985759;28;20448;-88
2023/08/15 07:22:01;;;;;;;8.20;7.37;;;;;;;;;;4999263;28;20456;-88
2023/08/15 07:24:27;;;;;;;8.60;7.30;;;;;;;;;;5012058;28;20200;-88
2023/08/15 07:26:53;;;;;;;8.83;7.30;;;;;;;;;;5003017;28;20452;-90
2023/08/15 07:29:19;;;;;;;9.03;7.00;;;;;;;;;;5001414;28;20461;-88
2023/08/15 07:31:45;;;;;;;8.03;7.23;;;;;;;;;;5000606;28;20422;-88
2023/08/15 07:34:11;;;;;;;7.93;7.03;;;;;;;;;;5032153;28;20443;-87
2023/08/15 07:36:37;;;;;;;7.17;6.47;;;;;;;;;;5053920;28;20433;-87
2023/08/15 07:39:03;;;;;;;7.27;6.67;;;;;;;;;;5034956;28;20429;-88
2023/08/15 07:41:29;;;;;;;7.63;6.80;;;;;;;;;;5048093;28;20445;-90
2023/08/15 07:43:55;;;;;;;7.67;6.97;;;;;;;;;;5057652;28;20520;-87
2023/08/15 07:46:21;;;;;;;8.07;7.27;;;;;;;;;;5046350;28;20493;-88
2023/08/15 07:48:48;;;;;;;8.37;7.57;;;;;;;;;;5039009;28;20453;-88
2023/08/15 07:51:14;;;;;;;8.50;7.70;;;;;;;;;;5051302;28;20447;-88
2023/08/15 07:53:40;;;;;;;7.50;6.80;;;;;;;;;;5042991;28;20402;-87
2023/08/15 07:56:06;;;;;;;7.97;7.17;;;;;;;;;;5037366;28;20468;-88
2023/08/15 07:58:33;;;;;;;11.23;7.60;;;;;;;;;;5043936;28;20405;-87
2023/08/15 08:00:59;;;;;;;7.30;6.63;;;;;;;;;;5035917;28;20418;-88
2023/08/15 08:03:25;;;;;;;7.83;7.10;;;;;;;;;;5052092;28;20529;-88
2023/08/15 08:05:51;;;;;;;8.00;7.30;;;;;;;;;;5034647;28;20477;-88
2023/08/15 08:08:17;;;;;;;9.63;7.43;;;;;;;;;;5036946;28;20426;-89
2023/08/15 08:10:43;;;;;;;8.53;6.50;;;;;;;;;;5036673;28;20501;-88
2023/08/15 08:13:11;;;;;;;16.13;7.97;;;;;;;;;;5055892;28;20418;-88
2023/08/15 08:15:38;;;;;;;8.20;6.97;;;;;;;;;;5057242;28;20421;-90
2023/08/15 08:18:05;;;;;;;8.13;6.70;;;;;;;;;;5057530;28;20402;-88
2023/08/15 08:20:32;;;;;;;9.33;6.50;;;;;;;;;;5038294;28;20428;-88
2023/08/15 08:22:58;;;;;;;7.87;7.07;;;;;;;;;;5053992;28;20437;-88
2023/08/15 08:25:25;;;;;;;7.10;6.40;;;;;;;;;;5035707;28;20430;-89
2023/08/15 08:27:51;;;;;;;8.83;6.67;;;;;;;;;;5042431;28;20453;-88
2023/08/15 08:30:17;;;;;;;8.30;7.50;;;;;;;;;;5049957;28;20457;-87
2023/08/15 08:32:43;;;;;;;8.60;6.67;;;;;;;;;;5039524;28;20430;-89
2023/08/15 08:35:10;;;;;;;7.77;6.30;;;;;;;;;;5036964;28;20411;-89
2023/08/15 08:37:37;;;;;;;8.43;6.60;;;;;;;;;;5036414;28;20491;-87
2023/08/15 08:40:04;;;;;;;7.83;6.50;;;;;;;;;;5033435;28;20440;-90
2023/08/15 08:42:30;;;;;;;7.13;6.43;;;;;;;;;;5043385;28;20467;-88
2023/08/15 08:44:56;;;;;;;9.37;6.83;;;;;;;;;;5039155;28;20411;-89
2023/08/15 08:47:23;;;;;;;7.60;6.90;;;;;;;;;;5036388;28;20410;-89
2023/08/15 08:49:49;;;;;;;6.83;5.73;;;;;;;;;;5041174;28;21234;-88
2023/08/15 08:52:16;;;;;;;7.30;6.30;;;;;;;;;;5040913;28;20422;-88
2023/08/15 08:54:42;;;;;;;7.00;6.10;;;;;;;;;;5040742;28;20526;-88
2023/08/15 08:57:08;;;;;;;8.43;7.60;;;;;;;;;;5034571;28;20484;-87
2023/08/15 08:59:35;;;;;;;8.63;7.07;;;;;;;;;;5040670;28;20437;-88
2023/08/15 09:02:01;;;;;;;7.90;7.17;;;;;;;;;;5033406;28;20784;-87
2023/08/15 09:04:28;;;;;;;6.87;6.17;;;;;;;;;;5061323;28;20436;-87
2023/08/15 09:06:54;;;;;;;7.27;5.90;;;;;;;;;;5042100;28;20456;-88
2023/08/15 09:09:20;;;;;;;7.13;6.50;;;;;;;;;;5061927;28;20468;-92
2023/08/15 09:11:47;;;;;;;10.30;7.30;;;;;;;;;;5046325;28;20413;-88
2023/08/15 09:14:13;;;;;;;7.90;6.60;;;;;;;;;;5049302;28;20425;-89
2023/08/15 09:16:53;;;;;;;7.07;6.17;;;;;;;;;;5059479;28;20408;-89
2023/08/15 09:19:19;;;;;;;10.00;6.30;;;;;;;;;;5065671;28;20854;-88
2023/08/15 09:21:45;;;;;;;7.97;6.53;;;;;;;;;;5038895;28;20418;-89
2023/08/15 09:24:11;;;;;;;8.03;5.83;;;;;;;;;;5040100;28;20410;-89
2023/08/15 09:26:39;;;;;;;7.57;4.77;;;;;;;;;;5034799;28;20434;-87
2023/08/15 09:29:06;;;;;;;7.37;4.73;;;;;;;;;;5060749;28;21048;-87
2023/08/15 09:31:32;;;;;;;6.70;4.20;;;;;;;;;;5052059;28;20410;-88
2023/08/15 09:34:22;;;;;;;5.20;3.97;;;;;;;;;;5031543;28;20426;-87
2023/08/15 09:36:48;;;;;;;8.97;4.40;;;;;;;;;;5064332;28;20501;-87
2023/08/15 09:39:14;;;;;;;7.40;4.43;;;;;;;;;;5056942;28;20889;-85
2023/08/15 09:41:42;;;;;;;6.30;3.97;;;;;;;;;;5054020;28;20444;-88
2023/08/15 09:44:09;;;;;;;4.20;3.10;;;;;;;;;;5035051;28;20429;-89
2023/08/15 09:46:35;;;;;;;4.87;3.37;;;;;;;;;;5048941;28;20456;-88
2023/08/15 09:49:02;;;;;;;7.13;3.27;;;;;;;;;;5042365;28;20460;-87
2023/08/15 09:51:28;;;;;;;4.00;3.43;;;;;;;;;;5064060;28;20642;-88
2023/08/15 09:53:54;;;;;;;5.33;3.27;;;;;;;;;;5042580;28;20809;-88
2023/08/15 09:56:20;;;;;;;6.50;3.17;;;;;;;;;;5040611;28;20505;-87
2023/08/15 09:58:46;;;;;;;4.20;3.03;;;;;;;;;;5034047;28;20852;-87
2023/08/15 10:01:14;;;;;;;5.93;3.90;;;;;;;;;;5042779;28;20454;-87
2023/08/15 10:03:40;;;;;;;5.13;4.00;;;;;;;;;;5066206;28;20416;-86
2023/08/15 10:06:08;;;;;;;10.23;3.43;;;;;;;;;;5046940;28;20555;-87
2023/08/15 10:08:35;;;;;;;4.63;3.20;;;;;;;;;;5048160;28;20435;-87
2023/08/15 10:11:01;;;;;;;4.87;3.60;;;;;;;;;;5071257;28;20420;-88
2023/08/15 10:13:31;;;;;;;6.00;3.83;;;;;;;;;;5047660;28;20414;-86
2023/08/15 10:15:57;;;;;;;4.10;3.30;;;;;;;;;;5048147;28;20500;-86
2023/08/15 10:18:23;;;;;;;3.60;3.10;;;;;;;;;;5060949;28;20477;-91
2023/08/15 10:20:51;;;;;;;5.40;3.30;;;;;;;;;;5050624;28;20437;-88
2023/08/15 10:23:23;;;;;;;4.63;3.90;;;;;;;;;;5042267;28;20845;-87
2023/08/15 10:25:49;;;;;;;4.63;3.27;;;;;;;;;;5043530;28;20419;-85
2023/08/15 10:28:15;;;;;;;4.80;4.00;;;;;;;;;;5042182;28;20795;-86
2023/08/15 10:30:44;;;;;;;4.80;3.40;;;;;;;;;;5041012;28;20437;-87
2023/08/15 10:33:14;;;;;;;4.93;4.23;;;;;;;;;;5048049;28;20438;-88
2023/08/15 10:35:51;;;;;;;4.23;3.30;;;;;;;;;;5075577;28;20428;-88
2023/08/15 10:38:19;;;;;;;4.07;3.33;;;;;;;;;;5047175;28;20932;-89
2023/08/15 10:40:45;;;;;;;5.40;3.27;;;;;;;;;;5036314;28;20406;-88
2023/08/15 10:43:12;;;;;;;4.13;2.90;;;;;;;;;;5041604;28;20417;-88
2023/08/15 10:45:43;;;;;;;5.57;3.57;;;;;;;;;;5037969;28;20437;-88
2023/08/15 10:48:12;;;;;;;3.30;2.87;;;;;;;;;;5059822;28;20453;-88
2023/08/15 10:50:45;;;;;;;4.80;4.07;;;;;;;;;;5061115;28;20461;-88
2023/08/15 10:53:12;;;;;;;5.43;3.00;;;;;;;;;;5060637;28;20494;-88
2023/08/15 10:55:38;;;;;;;4.63;2.90;;;;;;;;;;5060945;28;20420;-89
2023/08/15 10:58:05;;;;;;;4.70;3.63;;;;;;;;;;5048688;28;20421;-88
2023/08/15 11:00:31;;;;;;;6.20;3.73;;;;;;;;;;5056165;28;20424;-88
2023/08/15 11:02:57;;;;;;;4.77;2.27;;;;;;;;;;5049233;28;21133;-87
2023/08/15 11:05:24;;;;;;;6.03;3.20;;;;;;;;;;5050966;28;20456;-90
2023/08/15 11:07:50;;;;;;;3.63;2.80;;;;;;;;;;5016588;28;20429;-89
2023/08/15 11:10:16;;;;;;;2.97;2.67;;;;;;;;;;5045954;28;21025;-89
2023/08/15 11:12:48;;;;;;;9.80;2.90;;;;;;;;;;5044251;28;20949;-88
2023/08/15 11:15:18;;;;;;;3.57;3.20;;;;;;;;;;5045401;28;20469;-88
2023/08/15 11:17:46;;;;;;;4.17;3.07;;;;;;;;;;5067397;28;20478;-88
2023/08/15 11:20:13;;;;;;;5.03;3.50;;;;;;;;;;5035679;28;20429;-87
2023/08/15 11:22:39;;;;;;;4.43;3.47;;;;;;;;;;5060579;28;20433;-89
2023/08/15 11:25:08;;;;;;;4.40;2.87;;;;;;;;;;5062052;28;20534;-88
2023/08/15 11:27:39;;;;;;;5.93;2.80;;;;;;;;;;5059334;28;20437;-89
2023/08/15 11:30:05;;;;;;;6.87;4.30;;;;;;;;;;5045835;28;20458;-88
2023/08/15 11:32:31;;;;;;;3.97;3.20;;;;;;;;;;5046048;28;20510;-90
2023/08/15 11:34:58;;;;;;;5.70;3.50;;;;;;;;;;5031527;28;20474;-87
2023/08/15 11:37:24;;;;;;;5.50;3.50;;;;;;;;;;5076037;28;20403;-87
2023/08/15 11:39:53;;;;;;;4.70;3.37;;;;;;;;;;5063110;28;20819;-87
2023/08/15 11:42:19;;;;;;;4.20;2.93;;;;;;;;;;5048212;28;20447;-88
2023/08/15 11:44:45;;;;;;;4.60;3.80;;;;;;;;;;5032666;28;20441;-87
2023/08/15 11:47:14;;;;;;;3.40;3.03;;;;;;;;;;5050321;28;20465;-88
2023/08/15 11:49:40;;;;;;;6.50;3.77;;;;;;;;;;5047202;28;20445;-87
2023/08/15 11:52:07;;;;;;;5.97;4.53;;;;;;;;;;5053127;28;20441;-87
2023/08/15 11:54:34;;;;;;;7.70;4.13;;;;;;;;;;5039281;28;20441;-87
2023/08/15 11:57:00;;;;;;;6.77;5.03;;;;;;;;;;5058367;28;20433;-88
2023/08/15 11:59:26;;;;;;;5.20;4.40;;;;;;;;;;5045860;28;20508;-88
2023/08/15 12:01:52;;;;;;;5.30;4.60;;;;;;;;;;5042741;28;20441;-89
2023/08/15 12:04:18;;;;;;;5.97;5.30;;;;;;;;;;5034476;28;20803;-88
2023/08/15 12:06:44;;;;;;;6.27;4.93;;;;;;;;;;5062800;28;20861;-88
2023/08/15 12:09:10;;;;;;;7.00;4.87;;;;;;;;;;5072772;28;20456;-89
2023/08/15 12:11:36;;;;;;;8.37;5.47;;;;;;;;;;5055258;28;20454;-87
2023/08/15 12:14:03;;;;;;;6.13;4.73;;;;;;;;;;5040378;28;20553;-88
2023/08/15 12:16:29;;;;;;;8.07;5.47;;;;;;;;;;5047407;28;20526;-89
2023/08/15 12:18:55;;;;;;;8.53;5.60;;;;;;;;;;5053263;28;20810;-88
2023/08/15 12:21:21;;;;;;;7.60;4.73;;;;;;;;;;5046711;28;20408;-89
2023/08/15 12:23:48;;;;;;;7.67;4.83;;;;;;;;;;5047600;28;20461;-88
2023/08/15 12:26:14;;;;;;;6.67;5.20;;;;;;;;;;5050065;28;20422;-88
2023/08/15 12:28:40;;;;;;;7.80;5.17;;;;;;;;;;5043681;28;20444;-87
2023/08/15 12:31:06;;;;;;;4.63;4.23;;;;;;;;;;5053216;28;20444;-88
2023/08/15 12:33:35;;;;;;;5.10;3.97;;;;;;;;;;5058659;28;20417;-90
2023/08/15 12:36:02;;;;;;;4.40;4.00;;;;;;;;;;5055801;28;20495;-91
2023/08/15 12:38:28;;;;;;;6.53;3.63;;;;;;;;;;5046610;28;20432;-88
2023/08/15 12:40:54;;;;;;;5.93;4.27;;;;;;;;;;5051419;28;20465;-88
2023/08/15 12:43:23;;;;;;;5.20;4.10;;;;;;;;;;5069297;28;20441;-87
2023/08/15 12:45:49;;;;;;;4.60;3.50;;;;;;;;;;5079810;28;20433;-87
2023/08/15 12:48:15;;;;;;;6.23;3.10;;;;;;;;;;5047268;28;20417;-88
2023/08/15 12:50:41;;;;;;;5.37;3.40;;;;;;;;;;5044970;28;20457;-89
2023/08/15 12:53:08;;;;;;;4.17;3.40;;;;;;;;;;5062898;28;20498;-88
2023/08/15 12:55:34;;;;;;;4.90;3.80;;;;;;;;;;5058388;28;20430;-88
2023/08/15 12:58:02;;;;;;;4.73;3.50;;;;;;;;;;5060739;28;20496;-87
2023/08/15 13:00:29;;;;;;;8.33;3.50;;;;;;;;;;5034625;28;20463;-87
2023/08/15 13:02:57;;;;;;;4.83;3.50;;;;;;;;;;5014354;28;20447;-88
2023/08/15 13:05:23;;;;;;;5.90;3.90;;;;;;;;;;4994837;28;20431;-88
2023/08/15 13:07:50;;;;;;;3.90;3.33;;;;;;;;;;5009248;28;20433;-85
2023/08/15 13:10:16;;;;;;;4.00;3.60;;;;;;;;;;5041890;28;20465;-87
2023/08/15 13:12:42;;;;;;;7.90;4.10;;;;;;;;;;5015755;28;20431;-88
2023/08/15 13:15:11;;;;;;;4.03;3.40;;;;;;;;;;5001394;28;20456;-89
2023/08/15 13:17:37;;;;;;;8.03;3.90;;;;;;;;;;5026500;28;20444;-88
2023/08/15 13:20:04;;;;;;;7.10;4.00;;;;;;;;;;5023122;28;20434;-89
2023/08/15 13:22:30;;;;;;;4.23;3.43;;;;;;;;;;5014169;28;20429;-88
2023/08/15 13:24:56;;;;;;;4.90;3.63;;;;;;;;;;5007134;28;20416;-88
2023/08/15 13:27:22;;;;;;;5.90;3.40;;;;;;;;;;5017781;28;20244;-88
2023/08/15 13:29:48;;;;;;;4.43;4.03;;;;;;;;;;5011992;28;20467;-88
2023/08/15 13:32:14;;;;;;;5.30;3.80;;;;;;;;;;5041500;28;20505;-87
2023/08/15 13:34:40;;;;;;;4.27;3.87;;;;;;;;;;5044161;28;20438;-88
2023/08/15 13:37:07;;;;;;;5.73;4.20;;;;;;;;;;5044625;28;20477;-87
2023/08/15 13:39:33;;;;;;;5.47;4.10;;;;;;;;;;5052166;28;20416;-87
2023/08/15 13:41:59;;;;;;;5.23;3.47;;;;;;;;;;5036092;28;20415;-86
2023/08/15 13:44:25;;;;;;;4.63;3.93;;;;;;;;;;5057987;28;20473;-89
2023/08/15 13:46:51;;;;;;;5.20;3.80;;;;;;;;;;5047757;28;20461;-87
2023/08/15 13:49:17;;;;;;;5.13;4.63;;;;;;;;;;5074362;28;20452;-87
2023/08/15 13:51:43;;;;;;;6.90;5.53;;;;;;;;;;5073653;28;20461;-86
2023/08/15 13:54:15;;;;;;;7.70;4.77;;;;;;;;;;5071400;28;20439;-88
2023/08/15 13:56:42;;;;;;;7.40;4.60;;;;;;;;;;5081458;28;20413;-87
2023/08/15 13:59:08;;;;;;;5.77;4.60;;;;;;;;;;5052989;28;20417;-89
2023/08/15 14:01:34;;;;;;;6.97;4.93;;;;;;;;;;5047095;28;21073;-90
2023/08/15 14:04:02;;;;;;;5.27;4.77;;;;;;;;;;5051629;28;20501;-88
2023/08/15 14:06:28;;;;;;;6.50;5.10;;;;;;;;;;5039903;28;20175;-87
2023/08/15 14:08:54;;;;;;;10.03;6.43;;;;;;;;;;5049230;28;20404;-88
2023/08/15 14:11:20;;;;;;;7.13;5.13;;;;;;;;;;5050281;28;20428;-87
2023/08/15 14:13:47;;;;;;;7.10;5.23;;;;;;;;;;5043306;28;20478;-87
2023/08/15 14:16:13;;;;;;;7.40;5.17;;;;;;;;;;5036551;28;20429;-87
2023/08/15 14:18:39;;;;;;;10.57;6.00;;;;;;;;;;5043584;28;20912;-88
2023/08/15 14:21:05;;;;;;;6.20;5.60;;;;;;;;;;5054093;28;20420;-88
2023/08/15 14:23:31;;;;;;;6.53;5.93;;;;;;;;;;5039343;28;20409;-88
2023/08/15 14:25:57;;;;;;;6.03;5.43;;;;;;;;;;5053501;28;20560;-90
2023/08/15 14:28:23;;;;;;;6.00;5.20;;;;;;;;;;5044442;28;20429;-89
2023/08/15 14:30:49;;;;;;;6.00;5.50;;;;;;;;;;5037304;28;20450;-88
2023/08/15 14:33:15;;;;;;;6.37;5.77;;;;;;;;;;5040803;28;20424;-89
2023/08/15 14:35:41;;;;;;;7.43;5.30;;;;;;;;;;5055109;28;20818;-87
2023/08/15 14:38:08;;;;;;;5.93;5.33;;;;;;;;;;5040455;28;20808;-87
2023/08/15 14:40:34;;;;;;;7.20;6.07;;;;;;;;;;5040703;28;20493;-88
2023/08/15 14:43:01;;;;;;;6.60;6.00;;;;;;;;;;5041077;28;20808;-87
2023/08/15 14:45:26;;;;;;;6.73;6.13;;;;;;;;;;5041755;28;20425;-88